sensor_id;sensor_type;location;lat;lon;timestamp;P1;durP1;ratioP1;P2;durP2;ratioP2
27802;SDS011;15182;48.174;11.562;2023-08-12T00:00:53;2.75;;;2.75;;
27802;SDS011;15182;48.174;11.562;2023-08-12T00:03:20;3.10;;;2.95;;
27802;SDS011;15182;48.174;11.562;2023-08-12T00:05:48;3.30;;;3.20;;
27802;SDS011;15182;48.174;11.562;2023-08-12T00:08:16;3.30;;;3.20;;
27802;SDS011;15182;48.174;11.562;2023-08-12T00:10:44;3.17;;;3.03;;
27802;SDS011;15182;48.174;11.562;2023-08-12T00:13:11;3.03;;;3.03;;
27802;SDS011;15182;48.174;11.562;2023-08-12T00:15:43;3.40;;;3.10;;
27802;SDS011;15182;48.174;11.562;2023-08-12T00:18:12;3.03;;;2.90;;
27802;SDS011;15182;48.174;11.562;2023-08-12T00:20:41;3.38;;;3.28;;
27802;SDS011;15182;48.174;11.562;2023-08-12T00:23:09;3.60;;;3.40;;
27802;SDS011;15182;48.174;11.562;2023-08-12T00:25:36;3.70;;;3.45;;
27802;SDS011;15182;48.174;11.562;2023-08-12T00:28:04;3.42;;;3.33;;
27802;SDS011;15182;48.174;11.562;2023-08-12T00:30:32;3.97;;;3.67;;
27802;SDS011;15182;48.174;11.562;2023-08-12T00:33:00;3.20;;;3.13;;
27802;SDS011;15182;48.174;11.562;2023-08-12T00:35:29;3.92;;;3.72;;
27802;SDS011;15182;48.174;11.562;2023-08-12T00:37:57;3.53;;;3.38;;
27802;SDS011;15182;48.174;11.562;2023-08-12T00:40:25;3.40;;;3.30;;
27802;SDS011;15182;48.174;11.562;2023-08-12T00:42:53;3.25;;;3.15;;
27802;SDS011;15182;48.174;11.562;2023-08-12T00:45:21;3.55;;;3.45;;
27802;SDS011;15182;48.174;11.562;2023-08-12T00:47:49;2.90;;;2.83;;
27802;SDS011;15182;48.174;11.562;2023-08-12T00:50:17;3.55;;;3.00;;
27802;SDS011;15182;48.174;11.562;2023-08-12T00:52:46;5.43;;;3.40;;
27802;SDS011;15182;48.174;11.562;2023-08-12T00:55:14;3.33;;;3.20;;
27802;SDS011;15182;48.174;11.562;2023-08-12T00:57:42;3.28;;;3.17;;
27802;SDS011;15182;48.174;11.562;2023-08-12T01:00:11;3.47;;;3.38;;
27802;SDS011;15182;48.174;11.562;2023-08-12T01:02:40;3.33;;;3.28;;
27802;SDS011;15182;48.174;11.562;2023-08-12T01:05:13;3.55;;;3.35;;
27802;SDS011;15182;48.174;11.562;2023-08-12T01:07:42;4.03;;;3.70;;
27802;SDS011;15182;48.174;11.562;2023-08-12T01:10:13;3.40;;;3.15;;
27802;SDS011;15182;48.174;11.562;2023-08-12T01:12:44;3.03;;;3.00;;
27802;SDS011;15182;48.174;11.562;2023-08-12T01:15:20;3.50;;;3.00;;
27802;SDS011;15182;48.174;11.562;2023-08-12T01:17:49;3.22;;;3.13;;
27802;SDS011;15182;48.174;11.562;2023-08-12T01:20:21;3.58;;;3.47;;
27802;SDS011;15182;48.174;11.562;2023-08-12T01:22:52;3.70;;;3.40;;
27802;SDS011;15182;48.174;11.562;2023-08-12T01:25:25;3.60;;;3.50;;
27802;SDS011;15182;48.174;11.562;2023-08-12T01:27:53;3.72;;;3.53;;
27802;SDS011;15182;48.174;11.562;2023-08-12T01:30:22;3.33;;;3.22;;
27802;SDS011;15182;48.174;11.562;2023-08-12T01:32:52;3.22;;;3.13;;
27802;SDS011;15182;48.174;11.562;2023-08-12T01:35:24;3.05;;;2.95;;
27802;SDS011;15182;48.174;11.562;2023-08-12T01:37:57;3.22;;;3.13;;
27802;SDS011;15182;48.174;11.562;2023-08-12T01:40:31;3.38;;;3.28;;
27802;SDS011;15182;48.174;11.562;2023-08-12T01:42:59;3.67;;;3.58;;
27802;SDS011;15182;48.174;11.562;2023-08-12T01:45:30;3.38;;;3.22;;
27802;SDS011;15182;48.174;11.562;2023-08-12T01:47:58;4.13;;;3.92;;
27802;SDS011;15182;48.174;11.562;2023-08-12T01:50:26;3.63;;;3.53;;
27802;SDS011;15182;48.174;11.562;2023-08-12T01:52:54;3.35;;;3.25;;
27802;SDS011;15182;48.174;11.562;2023-08-12T01:55:22;3.72;;;3.63;;
27802;SDS011;15182;48.174;11.562;2023-08-12T01:57:51;3.58;;;3.38;;
27802;SDS011;15182;48.174;11.562;2023-08-12T02:00:19;3.45;;;3.33;;
27802;SDS011;15182;48.174;11.562;2023-08-12T02:02:47;3.95;;;3.60;;
27802;SDS011;15182;48.174;11.562;2023-08-12T02:05:15;3.80;;;3.60;;
27802;SDS011;15182;48.174;11.562;2023-08-12T02:07:42;3.55;;;3.15;;
27802;SDS011;15182;48.174;11.562;2023-08-12T02:10:10;3.45;;;3.35;;
27802;SDS011;15182;48.174;11.562;2023-08-12T02:12:40;5.18;;;3.45;;
27802;SDS011;15182;48.174;11.562;2023-08-12T02:15:09;3.42;;;3.33;;
27802;SDS011;15182;48.174;11.562;2023-08-12T02:17:37;3.67;;;3.58;;
27802;SDS011;15182;48.174;11.562;2023-08-12T02:20:07;3.40;;;3.30;;
27802;SDS011;15182;48.174;11.562;2023-08-12T02:22:36;3.28;;;3.08;;
27802;SDS011;15182;48.174;11.562;2023-08-12T02:25:04;3.50;;;3.40;;
27802;SDS011;15182;48.174;11.562;2023-08-12T02:27:32;3.50;;;3.40;;
27802;SDS011;15182;48.174;11.562;2023-08-12T02:30:00;4.20;;;3.53;;
27802;SDS011;15182;48.174;11.562;2023-08-12T02:32:29;4.00;;;2.95;;
27802;SDS011;15182;48.174;11.562;2023-08-12T02:34:57;3.45;;;3.35;;
27802;SDS011;15182;48.174;11.562;2023-08-12T02:37:25;3.20;;;3.10;;
27802;SDS011;15182;48.174;11.562;2023-08-12T02:39:53;3.00;;;2.90;;
27802;SDS011;15182;48.174;11.562;2023-08-12T02:42:21;3.10;;;2.92;;
27802;SDS011;15182;48.174;11.562;2023-08-12T02:44:48;3.17;;;3.10;;
27802;SDS011;15182;48.174;11.562;2023-08-12T02:47:16;3.28;;;3.17;;
27802;SDS011;15182;48.174;11.562;2023-08-12T02:49:46;3.25;;;3.15;;
27802;SDS011;15182;48.174;11.562;2023-08-12T02:52:14;3.40;;;3.30;;
27802;SDS011;15182;48.174;11.562;2023-08-12T02:54:41;3.25;;;3.10;;
27802;SDS011;15182;48.174;11.562;2023-08-12T02:57:09;3.33;;;3.13;;
27802;SDS011;15182;48.174;11.562;2023-08-12T02:59:37;3.10;;;2.97;;
27802;SDS011;15182;48.174;11.562;2023-08-12T03:02:05;3.33;;;3.22;;
27802;SDS011;15182;48.174;11.562;2023-08-12T03:04:32;2.90;;;2.80;;
27802;SDS011;15182;48.174;11.562;2023-08-12T03:07:02;3.22;;;3.13;;
27802;SDS011;15182;48.174;11.562;2023-08-12T03:09:30;2.72;;;2.72;;
27802;SDS011;15182;48.174;11.562;2023-08-12T03:11:57;3.22;;;3.13;;
27802;SDS011;15182;48.174;11.562;2023-08-12T03:14:28;3.17;;;3.10;;
27802;SDS011;15182;48.174;11.562;2023-08-12T03:16:58;3.38;;;3.28;;
27802;SDS011;15182;48.174;11.562;2023-08-12T03:19:27;3.63;;;3.53;;
27802;SDS011;15182;48.174;11.562;2023-08-12T03:21:55;3.22;;;3.20;;
27802;SDS011;15182;48.174;11.562;2023-08-12T03:24:24;3.42;;;3.22;;
27802;SDS011;15182;48.174;11.562;2023-08-12T03:26:52;3.63;;;3.45;;
27802;SDS011;15182;48.174;11.562;2023-08-12T03:29:20;3.40;;;3.30;;
27802;SDS011;15182;48.174;11.562;2023-08-12T03:31:48;3.53;;;3.33;;
27802;SDS011;15182;48.174;11.562;2023-08-12T03:34:16;3.47;;;3.38;;
27802;SDS011;15182;48.174;11.562;2023-08-12T03:36:44;3.63;;;3.53;;
27802;SDS011;15182;48.174;11.562;2023-08-12T03:39:15;3.47;;;3.38;;
27802;SDS011;15182;48.174;11.562;2023-08-12T03:41:44;3.40;;;3.30;;
27802;SDS011;15182;48.174;11.562;2023-08-12T03:44:12;4.85;;;3.15;;
27802;SDS011;15182;48.174;11.562;2023-08-12T03:46:40;3.13;;;3.03;;
27802;SDS011;15182;48.174;11.562;2023-08-12T03:49:08;3.25;;;3.15;;
27802;SDS011;15182;48.174;11.562;2023-08-12T03:51:35;3.20;;;3.10;;
27802;SDS011;15182;48.174;11.562;2023-08-12T03:54:03;3.83;;;3.70;;
27802;SDS011;15182;48.174;11.562;2023-08-12T03:56:32;3.03;;;3.03;;
27802;SDS011;15182;48.174;11.562;2023-08-12T03:59:03;3.47;;;3.38;;
27802;SDS011;15182;48.174;11.562;2023-08-12T04:01:32;4.03;;;3.70;;
27802;SDS011;15182;48.174;11.562;2023-08-12T04:03:59;3.85;;;3.67;;
27802;SDS011;15182;48.174;11.562;2023-08-12T04:06:27;3.65;;;3.42;;
27802;SDS011;15182;48.174;11.562;2023-08-12T04:08:55;3.47;;;3.28;;
27802;SDS011;15182;48.174;11.562;2023-08-12T04:11:23;3.95;;;3.50;;
27802;SDS011;15182;48.174;11.562;2023-08-12T04:13:51;3.50;;;3.40;;
27802;SDS011;15182;48.174;11.562;2023-08-12T04:16:20;3.28;;;3.17;;
27802;SDS011;15182;48.174;11.562;2023-08-12T04:18:47;3.55;;;3.45;;
27802;SDS011;15182;48.174;11.562;2023-08-12T04:21:15;3.25;;;3.15;;
27802;SDS011;15182;48.174;11.562;2023-08-12T04:23:43;3.28;;;3.00;;
27802;SDS011;15182;48.174;11.562;2023-08-12T04:26:11;3.47;;;3.38;;
27802;SDS011;15182;48.174;11.562;2023-08-12T04:28:39;3.92;;;3.70;;
27802;SDS011;15182;48.174;11.562;2023-08-12T04:31:07;3.50;;;3.40;;
27802;SDS011;15182;48.174;11.562;2023-08-12T04:33:37;3.20;;;3.10;;
27802;SDS011;15182;48.174;11.562;2023-08-12T04:36:05;3.58;;;3.35;;
27802;SDS011;15182;48.174;11.562;2023-08-12T04:38:34;3.33;;;3.22;;
27802;SDS011;15182;48.174;11.562;2023-08-12T04:41:05;3.47;;;3.38;;
27802;SDS011;15182;48.174;11.562;2023-08-12T04:43:33;3.55;;;3.30;;
27802;SDS011;15182;48.174;11.562;2023-08-12T04:46:01;3.55;;;3.45;;
27802;SDS011;15182;48.174;11.562;2023-08-12T04:48:30;3.53;;;3.42;;
27802;SDS011;15182;48.174;11.562;2023-08-12T04:51:01;3.38;;;3.22;;
27802;SDS011;15182;48.174;11.562;2023-08-12T04:53:33;3.53;;;3.42;;
27802;SDS011;15182;48.174;11.562;2023-08-12T04:56:01;2.95;;;2.92;;
27802;SDS011;15182;48.174;11.562;2023-08-12T04:58:30;3.20;;;3.10;;
27802;SDS011;15182;48.174;11.562;2023-08-12T05:00:57;3.63;;;3.53;;
27802;SDS011;15182;48.174;11.562;2023-08-12T05:03:25;3.67;;;3.53;;
27802;SDS011;15182;48.174;11.562;2023-08-12T05:05:54;3.83;;;3.53;;
27802;SDS011;15182;48.174;11.562;2023-08-12T05:08:27;3.65;;;3.55;;
27802;SDS011;15182;48.174;11.562;2023-08-12T05:10:55;3.92;;;3.83;;
27802;SDS011;15182;48.174;11.562;2023-08-12T05:13:24;3.53;;;3.33;;
27802;SDS011;15182;48.174;11.562;2023-08-12T05:15:54;3.88;;;3.65;;
27802;SDS011;15182;48.174;11.562;2023-08-12T05:18:22;3.95;;;3.75;;
27802;SDS011;15182;48.174;11.562;2023-08-12T05:20:51;3.80;;;3.60;;
27802;SDS011;15182;48.174;11.562;2023-08-12T05:23:19;3.55;;;3.45;;
27802;SDS011;15182;48.174;11.562;2023-08-12T05:25:49;4.22;;;4.13;;
27802;SDS011;15182;48.174;11.562;2023-08-12T05:28:17;3.47;;;3.38;;
27802;SDS011;15182;48.174;11.562;2023-08-12T05:30:44;3.80;;;3.67;;
27802;SDS011;15182;48.174;11.562;2023-08-12T05:33:12;3.90;;;3.75;;
27802;SDS011;15182;48.174;11.562;2023-08-12T05:35:40;3.83;;;3.65;;
27802;SDS011;15182;48.174;11.562;2023-08-12T05:38:08;3.80;;;3.70;;
27802;SDS011;15182;48.174;11.562;2023-08-12T05:40:35;4.03;;;3.80;;
27802;SDS011;15182;48.174;11.562;2023-08-12T05:43:04;3.72;;;3.63;;
27802;SDS011;15182;48.174;11.562;2023-08-12T05:45:32;4.13;;;3.85;;
27802;SDS011;15182;48.174;11.562;2023-08-12T05:48:00;3.55;;;3.40;;
27802;SDS011;15182;48.174;11.562;2023-08-12T05:50:28;3.97;;;3.67;;
27802;SDS011;15182;48.174;11.562;2023-08-12T05:52:56;3.97;;;3.88;;
27802;SDS011;15182;48.174;11.562;2023-08-12T05:55:23;4.05;;;3.90;;
27802;SDS011;15182;48.174;11.562;2023-08-12T05:57:51;4.53;;;4.22;;
27802;SDS011;15182;48.174;11.562;2023-08-12T06:00:20;3.75;;;3.63;;
27802;SDS011;15182;48.174;11.562;2023-08-12T06:02:48;3.47;;;3.38;;
27802;SDS011;15182;48.174;11.562;2023-08-12T06:05:16;4.20;;;3.83;;
27802;SDS011;15182;48.174;11.562;2023-08-12T06:07:44;3.92;;;3.70;;
27802;SDS011;15182;48.174;11.562;2023-08-12T06:10:12;3.63;;;3.53;;
27802;SDS011;15182;48.174;11.562;2023-08-12T06:12:39;3.58;;;3.47;;
27802;SDS011;15182;48.174;11.562;2023-08-12T06:15:07;3.88;;;3.78;;
27802;SDS011;15182;48.174;11.562;2023-08-12T06:17:37;3.78;;;3.67;;
27802;SDS011;15182;48.174;11.562;2023-08-12T06:20:06;3.92;;;3.83;;
27802;SDS011;15182;48.174;11.562;2023-08-12T06:22:34;4.57;;;4.25;;
27802;SDS011;15182;48.174;11.562;2023-08-12T06:25:02;3.67;;;3.58;;
27802;SDS011;15182;48.174;11.562;2023-08-12T06:27:31;3.15;;;3.05;;
27802;SDS011;15182;48.174;11.562;2023-08-12T06:29:59;4.03;;;3.72;;
27802;SDS011;15182;48.174;11.562;2023-08-12T06:32:26;3.42;;;3.33;;
27802;SDS011;15182;48.174;11.562;2023-08-12T06:34:56;3.97;;;3.67;;
27802;SDS011;15182;48.174;11.562;2023-08-12T06:37:23;3.97;;;3.60;;
27802;SDS011;15182;48.174;11.562;2023-08-12T06:39:51;3.28;;;3.17;;
27802;SDS011;15182;48.174;11.562;2023-08-12T06:42:19;3.45;;;3.25;;
27802;SDS011;15182;48.174;11.562;2023-08-12T06:44:56;3.67;;;3.55;;
27802;SDS011;15182;48.174;11.562;2023-08-12T06:47:26;3.83;;;3.72;;
27802;SDS011;15182;48.174;11.562;2023-08-12T06:49:56;3.53;;;3.42;;
27802;SDS011;15182;48.174;11.562;2023-08-12T06:52:24;7.22;;;3.30;;
27802;SDS011;15182;48.174;11.562;2023-08-12T06:54:52;3.13;;;3.08;;
27802;SDS011;15182;48.174;11.562;2023-08-12T06:57:20;3.40;;;3.30;;
27802;SDS011;15182;48.174;11.562;2023-08-12T06:59:48;3.50;;;3.38;;
27802;SDS011;15182;48.174;11.562;2023-08-12T07:02:15;3.78;;;3.67;;
27802;SDS011;15182;48.174;11.562;2023-08-12T07:04:43;3.47;;;3.38;;
27802;SDS011;15182;48.174;11.562;2023-08-12T07:07:12;3.50;;;3.40;;
27802;SDS011;15182;48.174;11.562;2023-08-12T07:09:40;2.90;;;2.90;;
27802;SDS011;15182;48.174;11.562;2023-08-12T07:12:08;3.50;;;3.40;;
27802;SDS011;15182;48.174;11.562;2023-08-12T07:14:35;3.45;;;3.35;;
27802;SDS011;15182;48.174;11.562;2023-08-12T07:17:03;3.65;;;3.55;;
27802;SDS011;15182;48.174;11.562;2023-08-12T07:19:31;3.00;;;2.97;;
27802;SDS011;15182;48.174;11.562;2023-08-12T07:21:59;3.42;;;3.33;;
27802;SDS011;15182;48.174;11.562;2023-08-12T07:24:28;3.70;;;3.50;;
27802;SDS011;15182;48.174;11.562;2023-08-12T07:26:56;3.20;;;3.20;;
27802;SDS011;15182;48.174;11.562;2023-08-12T07:29:24;2.88;;;2.88;;
27802;SDS011;15182;48.174;11.562;2023-08-12T07:31:52;3.35;;;3.25;;
27802;SDS011;15182;48.174;11.562;2023-08-12T07:34:20;3.53;;;3.42;;
27802;SDS011;15182;48.174;11.562;2023-08-12T07:36:47;3.55;;;3.38;;
27802;SDS011;15182;48.174;11.562;2023-08-12T07:39:15;5.70;;;3.40;;
27802;SDS011;15182;48.174;11.562;2023-08-12T07:41:44;3.58;;;3.47;;
27802;SDS011;15182;48.174;11.562;2023-08-12T07:44:12;3.60;;;3.50;;
27802;SDS011;15182;48.174;11.562;2023-08-12T07:46:40;3.78;;;3.53;;
27802;SDS011;15182;48.174;11.562;2023-08-12T07:49:08;3.47;;;3.38;;
27802;SDS011;15182;48.174;11.562;2023-08-12T07:51:36;3.75;;;3.65;;
27802;SDS011;15182;48.174;11.562;2023-08-12T07:54:04;3.90;;;3.60;;
27802;SDS011;15182;48.174;11.562;2023-08-12T07:56:32;3.47;;;3.38;;
27802;SDS011;15182;48.174;11.562;2023-08-12T07:59:01;3.90;;;3.80;;
27802;SDS011;15182;48.174;11.562;2023-08-12T08:01:29;4.43;;;3.58;;
27802;SDS011;15182;48.174;11.562;2023-08-12T08:03:57;3.58;;;3.47;;
27802;SDS011;15182;48.174;11.562;2023-08-12T08:06:25;3.53;;;3.35;;
27802;SDS011;15182;48.174;11.562;2023-08-12T08:08:53;3.55;;;3.45;;
27802;SDS011;15182;48.174;11.562;2023-08-12T08:11:21;3.28;;;3.10;;
27802;SDS011;15182;48.174;11.562;2023-08-12T08:13:51;3.95;;;3.75;;
27802;SDS011;15182;48.174;11.562;2023-08-12T08:16:20;3.13;;;3.13;;
27802;SDS011;15182;48.174;11.562;2023-08-12T08:18:48;3.38;;;3.20;;
27802;SDS011;15182;48.174;11.562;2023-08-12T08:21:16;3.42;;;3.22;;
27802;SDS011;15182;48.174;11.562;2023-08-12T08:23:45;3.30;;;3.17;;
27802;SDS011;15182;48.174;11.562;2023-08-12T08:26:13;3.45;;;3.35;;
27802;SDS011;15182;48.174;11.562;2023-08-12T08:28:41;4.07;;;3.97;;
27802;SDS011;15182;48.174;11.562;2023-08-12T08:31:09;3.50;;;3.40;;
27802;SDS011;15182;48.174;11.562;2023-08-12T08:33:38;3.80;;;3.65;;
27802;SDS011;15182;48.174;11.562;2023-08-12T08:36:06;3.78;;;3.67;;
27802;SDS011;15182;48.174;11.562;2023-08-12T08:38:34;3.55;;;3.45;;
27802;SDS011;15182;48.174;11.562;2023-08-12T08:41:03;3.45;;;3.35;;
27802;SDS011;15182;48.174;11.562;2023-08-12T08:43:35;3.60;;;3.40;;
27802;SDS011;15182;48.174;11.562;2023-08-12T08:46:03;3.67;;;3.33;;
27802;SDS011;15182;48.174;11.562;2023-08-12T08:48:33;3.17;;;3.08;;
27802;SDS011;15182;48.174;11.562;2023-08-12T08:51:02;5.25;;;3.22;;
27802;SDS011;15182;48.174;11.562;2023-08-12T08:53:33;3.60;;;3.45;;
27802;SDS011;15182;48.174;11.562;2023-08-12T08:56:04;3.50;;;3.40;;
27802;SDS011;15182;48.174;11.562;2023-08-12T08:58:34;3.10;;;3.00;;
27802;SDS011;15182;48.174;11.562;2023-08-12T09:01:01;3.38;;;3.28;;
27802;SDS011;15182;48.174;11.562;2023-08-12T09:03:29;3.58;;;3.47;;
27802;SDS011;15182;48.174;11.562;2023-08-12T09:05:57;3.80;;;3.60;;
27802;SDS011;15182;48.174;11.562;2023-08-12T09:08:27;3.25;;;3.17;;
27802;SDS011;15182;48.174;11.562;2023-08-12T09:10:57;3.42;;;3.33;;
27802;SDS011;15182;48.174;11.562;2023-08-12T09:13:26;3.83;;;3.45;;
27802;SDS011;15182;48.174;11.562;2023-08-12T09:15:55;3.78;;;3.50;;
27802;SDS011;15182;48.174;11.562;2023-08-12T09:18:23;3.55;;;3.25;;
27802;SDS011;15182;48.174;11.562;2023-08-12T09:20:51;3.30;;;3.22;;
27802;SDS011;15182;48.174;11.562;2023-08-12T09:23:19;3.20;;;3.10;;
27802;SDS011;15182;48.174;11.562;2023-08-12T09:25:48;5.13;;;3.65;;
27802;SDS011;15182;48.174;11.562;2023-08-12T09:28:16;3.78;;;3.50;;
27802;SDS011;15182;48.174;11.562;2023-08-12T09:30:44;3.10;;;3.00;;
27802;SDS011;15182;48.174;11.562;2023-08-12T09:33:18;3.10;;;3.00;;
27802;SDS011;15182;48.174;11.562;2023-08-12T09:35:52;3.20;;;3.10;;
27802;SDS011;15182;48.174;11.562;2023-08-12T09:38:22;3.33;;;3.25;;
27802;SDS011;15182;48.174;11.562;2023-08-12T09:40:52;3.55;;;3.45;;
27802;SDS011;15182;48.174;11.562;2023-08-12T09:43:23;3.47;;;3.38;;
27802;SDS011;15182;48.174;11.562;2023-08-12T09:45:51;4.07;;;3.58;;
27802;SDS011;15182;48.174;11.562;2023-08-12T09:48:23;3.63;;;3.42;;
27802;SDS011;15182;48.174;11.562;2023-08-12T09:50:51;3.40;;;3.30;;
27802;SDS011;15182;48.174;11.562;2023-08-12T09:53:19;3.63;;;3.35;;
27802;SDS011;15182;48.174;11.562;2023-08-12T09:55:49;3.40;;;3.20;;
27802;SDS011;15182;48.174;11.562;2023-08-12T09:58:22;3.72;;;3.63;;
27802;SDS011;15182;48.174;11.562;2023-08-12T10:00:51;3.47;;;3.40;;
27802;SDS011;15182;48.174;11.562;2023-08-12T10:03:20;3.25;;;3.15;;
27802;SDS011;15182;48.174;11.562;2023-08-12T10:05:49;3.90;;;3.80;;
27802;SDS011;15182;48.174;11.562;2023-08-12T10:08:18;3.88;;;3.72;;
27802;SDS011;15182;48.174;11.562;2023-08-12T10:10:46;4.07;;;3.90;;
27802;SDS011;15182;48.174;11.562;2023-08-12T10:13:15;3.95;;;3.85;;
27802;SDS011;15182;48.174;11.562;2023-08-12T10:15:43;4.30;;;4.10;;
27802;SDS011;15182;48.174;11.562;2023-08-12T10:18:12;3.92;;;3.63;;
27802;SDS011;15182;48.174;11.562;2023-08-12T10:20:40;4.40;;;3.60;;
27802;SDS011;15182;48.174;11.562;2023-08-12T10:23:12;3.58;;;3.47;;
27802;SDS011;15182;48.174;11.562;2023-08-12T10:25:43;3.65;;;3.55;;
27802;SDS011;15182;48.174;11.562;2023-08-12T10:28:11;3.92;;;3.75;;
27802;SDS011;15182;48.174;11.562;2023-08-12T10:30:41;3.80;;;3.70;;
27802;SDS011;15182;48.174;11.562;2023-08-12T10:33:09;3.67;;;3.58;;
27802;SDS011;15182;48.174;11.562;2023-08-12T10:35:40;3.92;;;3.83;;
27802;SDS011;15182;48.174;11.562;2023-08-12T10:38:11;4.10;;;3.78;;
27802;SDS011;15182;48.174;11.562;2023-08-12T10:40:42;3.78;;;3.53;;
27802;SDS011;15182;48.174;11.562;2023-08-12T10:43:11;3.65;;;3.55;;
27802;SDS011;15182;48.174;11.562;2023-08-12T10:45:51;3.92;;;3.83;;
27802;SDS011;15182;48.174;11.562;2023-08-12T10:48:21;3.40;;;3.30;;
27802;SDS011;15182;48.174;11.562;2023-08-12T10:50:52;3.63;;;3.28;;
27802;SDS011;15182;48.174;11.562;2023-08-12T10:53:22;3.05;;;3.05;;
27802;SDS011;15182;48.174;11.562;2023-08-12T10:55:56;3.15;;;3.05;;
27802;SDS011;15182;48.174;11.562;2023-08-12T10:58:25;3.30;;;3.20;;
27802;SDS011;15182;48.174;11.562;2023-08-12T11:00:57;2.65;;;2.65;;
27802;SDS011;15182;48.174;11.562;2023-08-12T11:03:25;4.22;;;2.95;;
27802;SDS011;15182;48.174;11.562;2023-08-12T11:05:53;5.97;;;3.20;;
27802;SDS011;15182;48.174;11.562;2023-08-12T11:08:25;3.30;;;3.10;;
27802;SDS011;15182;48.174;11.562;2023-08-12T11:10:55;2.90;;;2.80;;
27802;SDS011;15182;48.174;11.562;2023-08-12T11:13:26;2.60;;;2.60;;
27802;SDS011;15182;48.174;11.562;2023-08-12T11:16:06;2.83;;;2.72;;
27802;SDS011;15182;48.174;11.562;2023-08-12T11:18:35;2.60;;;2.60;;
27802;SDS011;15182;48.174;11.562;2023-08-12T11:21:03;2.58;;;2.58;;
27802;SDS011;15182;48.174;11.562;2023-08-12T11:23:32;2.80;;;2.60;;
27802;SDS011;15182;48.174;11.562;2023-08-12T11:26:00;3.00;;;2.90;;
27802;SDS011;15182;48.174;11.562;2023-08-12T11:28:28;2.80;;;2.80;;
27802;SDS011;15182;48.174;11.562;2023-08-12T11:30:56;2.90;;;2.70;;
27802;SDS011;15182;48.174;11.562;2023-08-12T11:33:25;4.72;;;3.30;;
27802;SDS011;15182;48.174;11.562;2023-08-12T11:35:53;2.75;;;2.75;;
27802;SDS011;15182;48.174;11.562;2023-08-12T11:38:21;2.70;;;2.70;;
27802;SDS011;15182;48.174;11.562;2023-08-12T11:40:49;2.78;;;2.78;;
27802;SDS011;15182;48.174;11.562;2023-08-12T11:43:20;2.90;;;2.80;;
27802;SDS011;15182;48.174;11.562;2023-08-12T11:45:49;2.65;;;2.60;;
27802;SDS011;15182;48.174;11.562;2023-08-12T11:48:16;2.70;;;2.60;;
27802;SDS011;15182;48.174;11.562;2023-08-12T11:50:46;2.75;;;2.75;;
27802;SDS011;15182;48.174;11.562;2023-08-12T11:53:13;7.05;;;2.75;;
27802;SDS011;15182;48.174;11.562;2023-08-12T11:55:41;2.53;;;2.53;;
27802;SDS011;15182;48.174;11.562;2023-08-12T11:58:11;2.85;;;2.72;;
27802;SDS011;15182;48.174;11.562;2023-08-12T12:00:44;2.58;;;2.58;;
27802;SDS011;15182;48.174;11.562;2023-08-12T12:03:15;2.70;;;2.70;;
27802;SDS011;15182;48.174;11.562;2023-08-12T12:05:46;3.13;;;3.00;;
27802;SDS011;15182;48.174;11.562;2023-08-12T12:08:14;4.03;;;3.10;;
27802;SDS011;15182;48.174;11.562;2023-08-12T12:10:42;2.80;;;2.70;;
27802;SDS011;15182;48.174;11.562;2023-08-12T12:13:10;2.53;;;2.50;;
27802;SDS011;15182;48.174;11.562;2023-08-12T12:15:41;4.60;;;2.55;;
27802;SDS011;15182;48.174;11.562;2023-08-12T12:18:10;2.40;;;2.40;;
27802;SDS011;15182;48.174;11.562;2023-08-12T12:20:42;4.50;;;2.65;;
27802;SDS011;15182;48.174;11.562;2023-08-12T12:23:26;3.38;;;2.85;;
27802;SDS011;15182;48.174;11.562;2023-08-12T12:25:58;2.78;;;2.78;;
27802;SDS011;15182;48.174;11.562;2023-08-12T12:28:27;2.78;;;2.78;;
27802;SDS011;15182;48.174;11.562;2023-08-12T12:30:55;2.65;;;2.65;;
27802;SDS011;15182;48.174;11.562;2023-08-12T12:33:23;2.58;;;2.58;;
27802;SDS011;15182;48.174;11.562;2023-08-12T12:35:51;2.70;;;2.60;;
27802;SDS011;15182;48.174;11.562;2023-08-12T12:38:20;3.00;;;2.88;;
27802;SDS011;15182;48.174;11.562;2023-08-12T12:40:48;2.80;;;2.70;;
27802;SDS011;15182;48.174;11.562;2023-08-12T12:43:16;3.03;;;2.50;;
27802;SDS011;15182;48.174;11.562;2023-08-12T12:45:43;2.90;;;2.70;;
27802;SDS011;15182;48.174;11.562;2023-08-12T12:48:11;3.03;;;2.70;;
27802;SDS011;15182;48.174;11.562;2023-08-12T12:50:39;3.10;;;3.00;;
27802;SDS011;15182;48.174;11.562;2023-08-12T12:53:07;2.80;;;2.70;;
27802;SDS011;15182;48.174;11.562;2023-08-12T12:55:36;3.47;;;3.17;;
27802;SDS011;15182;48.174;11.562;2023-08-12T12:58:04;2.67;;;2.58;;
27802;SDS011;15182;48.174;11.562;2023-08-12T13:00:31;2.72;;;2.63;;
27802;SDS011;15182;48.174;11.562;2023-08-12T13:02:59;2.35;;;2.35;;
27802;SDS011;15182;48.174;11.562;2023-08-12T13:05:27;2.92;;;2.80;;
27802;SDS011;15182;48.174;11.562;2023-08-12T13:07:55;2.72;;;2.63;;
27802;SDS011;15182;48.174;11.562;2023-08-12T13:10:22;2.60;;;2.60;;
27802;SDS011;15182;48.174;11.562;2023-08-12T13:12:51;2.30;;;2.30;;
27802;SDS011;15182;48.174;11.562;2023-08-12T13:15:19;2.55;;;2.55;;
27802;SDS011;15182;48.174;11.562;2023-08-12T13:17:50;2.30;;;2.30;;
27802;SDS011;15182;48.174;11.562;2023-08-12T13:20:17;2.38;;;2.28;;
27802;SDS011;15182;48.174;11.562;2023-08-12T13:22:45;2.38;;;2.38;;
27802;SDS011;15182;48.174;11.562;2023-08-12T13:25:13;2.53;;;2.33;;
27802;SDS011;15182;48.174;11.562;2023-08-12T13:27:41;2.63;;;2.60;;
27802;SDS011;15182;48.174;11.562;2023-08-12T13:30:11;2.50;;;2.40;;
27802;SDS011;15182;48.174;11.562;2023-08-12T13:32:39;2.40;;;2.40;;
27802;SDS011;15182;48.174;11.562;2023-08-12T13:35:07;2.50;;;2.40;;
27802;SDS011;15182;48.174;11.562;2023-08-12T13:37:36;2.85;;;2.75;;
27802;SDS011;15182;48.174;11.562;2023-08-12T13:40:05;2.80;;;2.80;;
27802;SDS011;15182;48.174;11.562;2023-08-12T13:42:34;2.45;;;2.35;;
27802;SDS011;15182;48.174;11.562;2023-08-12T13:45:02;5.97;;;2.45;;
27802;SDS011;15182;48.174;11.562;2023-08-12T13:47:33;2.65;;;2.60;;
27802;SDS011;15182;48.174;11.562;2023-08-12T13:50:01;2.42;;;2.42;;
27802;SDS011;15182;48.174;11.562;2023-08-12T13:52:30;2.22;;;2.20;;
27802;SDS011;15182;48.174;11.562;2023-08-12T13:54:58;2.83;;;2.50;;
27802;SDS011;15182;48.174;11.562;2023-08-12T13:57:26;2.42;;;2.42;;
27802;SDS011;15182;48.174;11.562;2023-08-12T13:59:53;3.42;;;2.47;;
27802;SDS011;15182;48.174;11.562;2023-08-12T14:02:22;6.93;;;2.85;;
27802;SDS011;15182;48.174;11.562;2023-08-12T14:04:51;2.30;;;2.30;;
27802;SDS011;15182;48.174;11.562;2023-08-12T14:07:19;2.40;;;2.40;;
27802;SDS011;15182;48.174;11.562;2023-08-12T14:09:47;2.63;;;2.53;;
27802;SDS011;15182;48.174;11.562;2023-08-12T14:12:15;2.38;;;2.35;;
27802;SDS011;15182;48.174;11.562;2023-08-12T14:14:43;3.20;;;2.40;;
27802;SDS011;15182;48.174;11.562;2023-08-12T14:17:11;2.33;;;2.22;;
27802;SDS011;15182;48.174;11.562;2023-08-12T14:19:40;2.78;;;2.25;;
27802;SDS011;15182;48.174;11.562;2023-08-12T14:22:09;2.40;;;2.40;;
27802;SDS011;15182;48.174;11.562;2023-08-12T14:24:37;4.57;;;2.40;;
27802;SDS011;15182;48.174;11.562;2023-08-12T14:27:05;2.50;;;2.40;;
27802;SDS011;15182;48.174;11.562;2023-08-12T14:29:33;3.03;;;2.92;;
27802;SDS011;15182;48.174;11.562;2023-08-12T14:32:01;2.90;;;2.80;;
27802;SDS011;15182;48.174;11.562;2023-08-12T14:34:28;2.75;;;2.75;;
27802;SDS011;15182;48.174;11.562;2023-08-12T14:36:56;3.13;;;3.03;;
27802;SDS011;15182;48.174;11.562;2023-08-12T14:39:26;3.33;;;3.13;;
27802;SDS011;15182;48.174;11.562;2023-08-12T14:41:54;3.20;;;3.00;;